Other Surface Observations
Issued by NWS Great Falls, MT

Home | Current Version | Previous Version | Text Only | Print | Product List | Glossary On
Versions: 1 2 3 4 5 6 7 8 9 10 11 12 13 14 15 16 17 18 19 20 21 22 23 24 25 26 27 28 29 30 31 32 33 34 35 36 37 38 39 40 41 42 43 44 45 46 47 48 49 50
000
SXUS55 KTFX 021443
OSOTFX

AREA AWOS OBSERVATIONS
NATIONAL WEATHER SERVICE GREAT FALLS MT
0808 AM MDT Sun Aug 02 2015

METAR K6S8 021355Z AUTO 33001KT 40SM 20/03 A3002 RMK A01 T02000033
METAR K7S0 021355Z AUTO 01000KT 40SM 14/07 A3004 RMK A01 T01440072
METAR K7S1 021355Z AUTO 12006KT 40SM 14/04 A3011 RMK A01 T01440038
METAR K97M 021355Z AUTO 07008KT 40SM 21/06 A3000 RMK A01 T02110055
METAR K9S2 021355Z AUTO 34006KT 40SM 16/12 A3002 RMK A01 T01550116
METAR K9S5 021355Z AUTO 28000KT 25SM 12/03 A3008 RMK A01 T01220027
METAR KM75 021355Z AUTO 05000KT 40SM 16/12 A3002 RMK A01 T01610116
METAR KRPX 021355Z AUTO 01009KT 40SM 19/10 A2996 RMK A01 T01880100
METAR KS01 021355Z AUTO 27007KT 25SM 16/13 A3012 RMK A01 T01550133
METAR KS34 021355Z AUTO 26000KT 25SM 11/03 A3001 RMK A01 T01110033
METAR KTHM 021255Z AUTO 17000KT 40SM 08/M01 A3003 RMK A01 T00771005



USA.gov is the U.S. government's official web portal to all federal, state and local government web resources and services.